ESGJ

Jönköping Airport

Jönköping, Sweden
METAR ESGJ 170920Z 02006KT 350V050 CAVOK 27/14 Q1014
Observed Flight Rules
Jul-17 @ 09:20 UTC (29 minutes ago) Visual Flight Rules
Wind Visibility Clouds
20° at 6 knots 10,000+ meters
  • Clear skies
Temperatures Readings
Current 27°C / 81°F
Dewpoint 14°C / 57°F
Humidity 45%
Altimeter 29.94" Hg
Pressure 1014 hPa
Elevation 232
METAR ESGJ 170920Z 02006KT 350V050 CAVOK 27/14 Q1014
Observed Flight Rules
Jul-17 @ 09:20 UTC
(29 minutes ago)
VFR
Wind Visibility
20° at 6 knots 10,000+ meters
Clouds
  • Clear skies
Temperature Dewpoint
27°C / 81°F 14°C / 57°F
Humidity Altimeter Pressure
45% 29.94" Hg 1014 hPa